sensor_id;sensor_type;location;lat;lon;timestamp;P1;durP1;ratioP1;P2;durP2;ratioP2
28988;SDS011;16089;59.952;10.818;2022-10-16T00:01:35;6.57;;;2.80;;
28988;SDS011;16089;59.952;10.818;2022-10-16T00:04:02;5.13;;;2.35;;
28988;SDS011;16089;59.952;10.818;2022-10-16T00:06:29;3.95;;;2.08;;
28988;SDS011;16089;59.952;10.818;2022-10-16T00:08:55;4.25;;;1.90;;
28988;SDS011;16089;59.952;10.818;2022-10-16T00:11:23;5.00;;;2.22;;
28988;SDS011;16089;59.952;10.818;2022-10-16T00:13:50;5.72;;;2.10;;
28988;SDS011;16089;59.952;10.818;2022-10-16T00:16:19;3.97;;;1.60;;
28988;SDS011;16089;59.952;10.818;2022-10-16T00:18:45;5.07;;;1.50;;
28988;SDS011;16089;59.952;10.818;2022-10-16T00:21:12;3.00;;;1.08;;
28988;SDS011;16089;59.952;10.818;2022-10-16T00:23:39;5.82;;;1.10;;
28988;SDS011;16089;59.952;10.818;2022-10-16T00:26:06;5.22;;;1.33;;
28988;SDS011;16089;59.952;10.818;2022-10-16T00:28:33;2.20;;;0.60;;
28988;SDS011;16089;59.952;10.818;2022-10-16T00:31:02;3.22;;;0.70;;
28988;SDS011;16089;59.952;10.818;2022-10-16T00:33:30;2.35;;;0.50;;
28988;SDS011;16089;59.952;10.818;2022-10-16T00:35:57;1.25;;;0.40;;
28988;SDS011;16089;59.952;10.818;2022-10-16T00:38:23;3.25;;;0.40;;
28988;SDS011;16089;59.952;10.818;2022-10-16T00:40:50;1.83;;;0.50;;
28988;SDS011;16089;59.952;10.818;2022-10-16T00:45:57;0.95;;;0.30;;
28988;SDS011;16089;59.952;10.818;2022-10-16T00:48:24;1.75;;;0.50;;
28988;SDS011;16089;59.952;10.818;2022-10-16T00:50:51;0.90;;;0.40;;
28988;SDS011;16089;59.952;10.818;2022-10-16T00:53:18;1.23;;;0.47;;
28988;SDS011;16089;59.952;10.818;2022-10-16T00:55:44;2.00;;;0.50;;
28988;SDS011;16089;59.952;10.818;2022-10-16T00:58:11;2.15;;;0.70;;
28988;SDS011;16089;59.952;10.818;2022-10-16T01:00:38;3.15;;;0.60;;
28988;SDS011;16089;59.952;10.818;2022-10-16T01:05:49;2.75;;;0.70;;
28988;SDS011;16089;59.952;10.818;2022-10-16T01:08:21;3.92;;;0.68;;
28988;SDS011;16089;59.952;10.818;2022-10-16T01:10:54;2.03;;;0.60;;
28988;SDS011;16089;59.952;10.818;2022-10-16T01:13:24;3.10;;;0.50;;
28988;SDS011;16089;59.952;10.818;2022-10-16T01:15:52;2.38;;;0.50;;
28988;SDS011;16089;59.952;10.818;2022-10-16T01:18:21;3.75;;;0.80;;
28988;SDS011;16089;59.952;10.818;2022-10-16T01:20:53;2.22;;;0.50;;
28988;SDS011;16089;59.952;10.818;2022-10-16T01:23:27;1.50;;;0.57;;
28988;SDS011;16089;59.952;10.818;2022-10-16T01:25:59;1.58;;;0.50;;
28988;SDS011;16089;59.952;10.818;2022-10-16T01:28:34;2.65;;;0.40;;
28988;SDS011;16089;59.952;10.818;2022-10-16T01:31:02;2.85;;;0.47;;
28988;SDS011;16089;59.952;10.818;2022-10-16T01:33:30;2.20;;;0.60;;
28988;SDS011;16089;59.952;10.818;2022-10-16T01:36:01;1.65;;;0.47;;
28988;SDS011;16089;59.952;10.818;2022-10-16T01:38:29;2.00;;;0.50;;
28988;SDS011;16089;59.952;10.818;2022-10-16T01:40:59;1.35;;;0.45;;
28988;SDS011;16089;59.952;10.818;2022-10-16T01:43:27;1.50;;;0.30;;
28988;SDS011;16089;59.952;10.818;2022-10-16T01:45:56;2.05;;;0.30;;
28988;SDS011;16089;59.952;10.818;2022-10-16T01:48:22;2.30;;;0.40;;
28988;SDS011;16089;59.952;10.818;2022-10-16T01:50:50;1.10;;;0.40;;
28988;SDS011;16089;59.952;10.818;2022-10-16T01:53:18;2.53;;;0.40;;
28988;SDS011;16089;59.952;10.818;2022-10-16T01:55:45;1.40;;;0.50;;
28988;SDS011;16089;59.952;10.818;2022-10-16T01:58:13;2.95;;;0.73;;
28988;SDS011;16089;59.952;10.818;2022-10-16T02:00:40;2.35;;;0.38;;
28988;SDS011;16089;59.952;10.818;2022-10-16T02:03:09;3.40;;;0.50;;
28988;SDS011;16089;59.952;10.818;2022-10-16T02:05:37;1.02;;;0.30;;
28988;SDS011;16089;59.952;10.818;2022-10-16T02:08:06;0.75;;;0.30;;
28988;SDS011;16089;59.952;10.818;2022-10-16T02:10:32;2.00;;;0.30;;
28988;SDS011;16089;59.952;10.818;2022-10-16T02:13:04;3.45;;;0.28;;
28988;SDS011;16089;59.952;10.818;2022-10-16T02:15:32;2.38;;;0.40;;
28988;SDS011;16089;59.952;10.818;2022-10-16T02:17:59;1.88;;;0.40;;
28988;SDS011;16089;59.952;10.818;2022-10-16T02:20:27;1.42;;;0.35;;
28988;SDS011;16089;59.952;10.818;2022-10-16T02:22:54;3.35;;;0.50;;
28988;SDS011;16089;59.952;10.818;2022-10-16T02:25:22;0.98;;;0.22;;
28988;SDS011;16089;59.952;10.818;2022-10-16T02:27:51;1.77;;;0.20;;
28988;SDS011;16089;59.952;10.818;2022-10-16T02:30:20;3.35;;;0.38;;
28988;SDS011;16089;59.952;10.818;2022-10-16T02:32:47;0.63;;;0.28;;
28988;SDS011;16089;59.952;10.818;2022-10-16T02:35:15;0.65;;;0.20;;
28988;SDS011;16089;59.952;10.818;2022-10-16T02:37:43;4.55;;;0.30;;
28988;SDS011;16089;59.952;10.818;2022-10-16T02:40:10;1.60;;;0.30;;
28988;SDS011;16089;59.952;10.818;2022-10-16T02:42:38;3.10;;;0.30;;
28988;SDS011;16089;59.952;10.818;2022-10-16T02:45:05;0.63;;;0.30;;
28988;SDS011;16089;59.952;10.818;2022-10-16T02:47:32;1.52;;;0.30;;
28988;SDS011;16089;59.952;10.818;2022-10-16T02:49:58;0.28;;;0.10;;
28988;SDS011;16089;59.952;10.818;2022-10-16T02:52:24;1.98;;;0.30;;
28988;SDS011;16089;59.952;10.818;2022-10-16T02:54:52;0.90;;;0.20;;
28988;SDS011;16089;59.952;10.818;2022-10-16T02:57:18;2.95;;;0.40;;
28988;SDS011;16089;59.952;10.818;2022-10-16T02:59:45;0.30;;;0.15;;
28988;SDS011;16089;59.952;10.818;2022-10-16T03:02:11;1.42;;;0.30;;
28988;SDS011;16089;59.952;10.818;2022-10-16T03:04:37;0.85;;;0.30;;
28988;SDS011;16089;59.952;10.818;2022-10-16T03:07:04;0.45;;;0.20;;
28988;SDS011;16089;59.952;10.818;2022-10-16T03:09:30;1.08;;;0.15;;
28988;SDS011;16089;59.952;10.818;2022-10-16T03:11:58;2.63;;;0.20;;
28988;SDS011;16089;59.952;10.818;2022-10-16T03:14:24;3.53;;;0.22;;
28988;SDS011;16089;59.952;10.818;2022-10-16T03:16:50;1.08;;;0.40;;
28988;SDS011;16089;59.952;10.818;2022-10-16T03:19:17;2.38;;;0.40;;
28988;SDS011;16089;59.952;10.818;2022-10-16T03:21:43;1.85;;;0.30;;
28988;SDS011;16089;59.952;10.818;2022-10-16T03:24:10;0.43;;;0.20;;
28988;SDS011;16089;59.952;10.818;2022-10-16T03:26:36;1.20;;;0.30;;
28988;SDS011;16089;59.952;10.818;2022-10-16T03:29:04;0.80;;;0.20;;
28988;SDS011;16089;59.952;10.818;2022-10-16T03:31:31;1.90;;;0.30;;
28988;SDS011;16089;59.952;10.818;2022-10-16T03:33:57;0.50;;;0.20;;
28988;SDS011;16089;59.952;10.818;2022-10-16T03:36:23;2.20;;;0.30;;
28988;SDS011;16089;59.952;10.818;2022-10-16T03:38:50;0.47;;;0.20;;
28988;SDS011;16089;59.952;10.818;2022-10-16T03:41:16;0.57;;;0.20;;
28988;SDS011;16089;59.952;10.818;2022-10-16T03:43:43;0.52;;;0.22;;
28988;SDS011;16089;59.952;10.818;2022-10-16T03:46:10;1.52;;;0.30;;
28988;SDS011;16089;59.952;10.818;2022-10-16T03:48:37;1.45;;;0.28;;
28988;SDS011;16089;59.952;10.818;2022-10-16T03:51:05;0.68;;;0.20;;
28988;SDS011;16089;59.952;10.818;2022-10-16T03:53:31;2.22;;;0.28;;
28988;SDS011;16089;59.952;10.818;2022-10-16T03:55:57;0.47;;;0.20;;
28988;SDS011;16089;59.952;10.818;2022-10-16T03:58:24;0.80;;;0.20;;
28988;SDS011;16089;59.952;10.818;2022-10-16T04:00:50;2.55;;;0.30;;
28988;SDS011;16089;59.952;10.818;2022-10-16T04:03:18;0.70;;;0.30;;
28988;SDS011;16089;59.952;10.818;2022-10-16T04:05:45;0.60;;;0.20;;
28988;SDS011;16089;59.952;10.818;2022-10-16T04:08:11;2.50;;;0.75;;
28988;SDS011;16089;59.952;10.818;2022-10-16T04:10:37;0.15;;;0.10;;
28988;SDS011;16089;59.952;10.818;2022-10-16T04:13:03;1.38;;;0.20;;
28988;SDS011;16089;59.952;10.818;2022-10-16T04:15:30;1.48;;;0.30;;
28988;SDS011;16089;59.952;10.818;2022-10-16T04:17:56;1.90;;;0.40;;
28988;SDS011;16089;59.952;10.818;2022-10-16T04:20:24;1.40;;;0.30;;
28988;SDS011;16089;59.952;10.818;2022-10-16T04:22:50;0.90;;;0.30;;
28988;SDS011;16089;59.952;10.818;2022-10-16T04:25:17;1.23;;;0.30;;
28988;SDS011;16089;59.952;10.818;2022-10-16T04:27:43;3.17;;;0.30;;
28988;SDS011;16089;59.952;10.818;2022-10-16T04:30:09;1.50;;;0.20;;
28988;SDS011;16089;59.952;10.818;2022-10-16T04:32:36;0.73;;;0.25;;
28988;SDS011;16089;59.952;10.818;2022-10-16T04:35:02;0.70;;;0.22;;
28988;SDS011;16089;59.952;10.818;2022-10-16T04:37:30;1.83;;;0.20;;
28988;SDS011;16089;59.952;10.818;2022-10-16T04:39:56;0.85;;;0.20;;
28988;SDS011;16089;59.952;10.818;2022-10-16T04:42:23;0.77;;;0.22;;
28988;SDS011;16089;59.952;10.818;2022-10-16T04:44:49;1.85;;;0.40;;
28988;SDS011;16089;59.952;10.818;2022-10-16T04:47:15;1.95;;;0.22;;
28988;SDS011;16089;59.952;10.818;2022-10-16T04:49:42;2.65;;;0.22;;
28988;SDS011;16089;59.952;10.818;2022-10-16T04:52:08;2.53;;;0.28;;
28988;SDS011;16089;59.952;10.818;2022-10-16T04:54:36;0.25;;;0.10;;
28988;SDS011;16089;59.952;10.818;2022-10-16T04:57:02;0.95;;;0.30;;
28988;SDS011;16089;59.952;10.818;2022-10-16T04:59:29;0.85;;;0.30;;
28988;SDS011;16089;59.952;10.818;2022-10-16T05:01:56;1.20;;;0.40;;
28988;SDS011;16089;59.952;10.818;2022-10-16T05:04:22;2.97;;;0.50;;
28988;SDS011;16089;59.952;10.818;2022-10-16T05:06:49;1.05;;;0.30;;
28988;SDS011;16089;59.952;10.818;2022-10-16T05:09:15;3.72;;;0.60;;
28988;SDS011;16089;59.952;10.818;2022-10-16T05:11:43;1.63;;;0.60;;
28988;SDS011;16089;59.952;10.818;2022-10-16T05:14:09;1.08;;;0.68;;
28988;SDS011;16089;59.952;10.818;2022-10-16T05:16:35;2.17;;;0.70;;
28988;SDS011;16089;59.952;10.818;2022-10-16T05:19:01;2.28;;;0.60;;
28988;SDS011;16089;59.952;10.818;2022-10-16T05:21:28;1.77;;;0.98;;
28988;SDS011;16089;59.952;10.818;2022-10-16T05:23:54;2.00;;;1.15;;
28988;SDS011;16089;59.952;10.818;2022-10-16T05:26:20;1.45;;;0.85;;
28988;SDS011;16089;59.952;10.818;2022-10-16T05:28:48;3.15;;;1.40;;
28988;SDS011;16089;59.952;10.818;2022-10-16T05:31:15;2.45;;;1.40;;
28988;SDS011;16089;59.952;10.818;2022-10-16T05:33:41;2.55;;;1.60;;
28988;SDS011;16089;59.952;10.818;2022-10-16T05:36:09;2.30;;;1.27;;
28988;SDS011;16089;59.952;10.818;2022-10-16T05:38:35;2.75;;;1.25;;
28988;SDS011;16089;59.952;10.818;2022-10-16T05:41:01;2.33;;;1.40;;
28988;SDS011;16089;59.952;10.818;2022-10-16T05:43:28;3.70;;;1.80;;
28988;SDS011;16089;59.952;10.818;2022-10-16T05:45:57;7.28;;;2.58;;
28988;SDS011;16089;59.952;10.818;2022-10-16T05:48:23;4.95;;;2.63;;
28988;SDS011;16089;59.952;10.818;2022-10-16T05:50:56;4.60;;;2.25;;
28988;SDS011;16089;59.952;10.818;2022-10-16T05:53:22;4.43;;;2.90;;
28988;SDS011;16089;59.952;10.818;2022-10-16T05:55:51;4.40;;;2.50;;
28988;SDS011;16089;59.952;10.818;2022-10-16T05:58:17;5.18;;;2.75;;
28988;SDS011;16089;59.952;10.818;2022-10-16T06:00:44;6.07;;;3.10;;
28988;SDS011;16089;59.952;10.818;2022-10-16T06:03:11;5.03;;;3.22;;
28988;SDS011;16089;59.952;10.818;2022-10-16T06:05:38;7.82;;;3.58;;
28988;SDS011;16089;59.952;10.818;2022-10-16T06:08:05;8.30;;;4.55;;
28988;SDS011;16089;59.952;10.818;2022-10-16T06:10:31;7.47;;;4.60;;
28988;SDS011;16089;59.952;10.818;2022-10-16T06:12:57;9.98;;;6.05;;
28988;SDS011;16089;59.952;10.818;2022-10-16T06:15:24;9.00;;;6.03;;
28988;SDS011;16089;59.952;10.818;2022-10-16T06:17:50;8.95;;;5.88;;
28988;SDS011;16089;59.952;10.818;2022-10-16T06:20:18;8.88;;;6.13;;
28988;SDS011;16089;59.952;10.818;2022-10-16T06:22:44;14.93;;;7.93;;
28988;SDS011;16089;59.952;10.818;2022-10-16T06:25:10;23.42;;;10.10;;
28988;SDS011;16089;59.952;10.818;2022-10-16T06:27:38;19.67;;;9.98;;
28988;SDS011;16089;59.952;10.818;2022-10-16T06:30:05;40.78;;;10.50;;
28988;SDS011;16089;59.952;10.818;2022-10-16T06:32:32;15.77;;;9.05;;
28988;SDS011;16089;59.952;10.818;2022-10-16T06:34:58;12.88;;;7.47;;
28988;SDS011;16089;59.952;10.818;2022-10-16T06:37:26;11.65;;;7.03;;
28988;SDS011;16089;59.952;10.818;2022-10-16T06:39:52;11.85;;;7.72;;
28988;SDS011;16089;59.952;10.818;2022-10-16T06:42:18;11.68;;;7.70;;
28988;SDS011;16089;59.952;10.818;2022-10-16T06:44:45;14.50;;;8.20;;
28988;SDS011;16089;59.952;10.818;2022-10-16T06:47:11;19.98;;;7.78;;
28988;SDS011;16089;59.952;10.818;2022-10-16T06:49:37;14.15;;;7.30;;
28988;SDS011;16089;59.952;10.818;2022-10-16T06:52:04;15.27;;;8.07;;
28988;SDS011;16089;59.952;10.818;2022-10-16T06:54:32;13.23;;;7.97;;
28988;SDS011;16089;59.952;10.818;2022-10-16T06:56:58;12.57;;;6.43;;
28988;SDS011;16089;59.952;10.818;2022-10-16T06:59:25;13.30;;;6.47;;
28988;SDS011;16089;59.952;10.818;2022-10-16T07:01:51;12.27;;;6.15;;
28988;SDS011;16089;59.952;10.818;2022-10-16T07:04:18;10.00;;;5.20;;
28988;SDS011;16089;59.952;10.818;2022-10-16T07:06:44;9.40;;;4.90;;
28988;SDS011;16089;59.952;10.818;2022-10-16T07:09:10;13.95;;;5.43;;
28988;SDS011;16089;59.952;10.818;2022-10-16T07:11:39;11.57;;;5.43;;
28988;SDS011;16089;59.952;10.818;2022-10-16T07:14:09;10.88;;;5.78;;
28988;SDS011;16089;59.952;10.818;2022-10-16T07:16:38;19.58;;;6.40;;
28988;SDS011;16089;59.952;10.818;2022-10-16T07:19:04;14.85;;;5.75;;
28988;SDS011;16089;59.952;10.818;2022-10-16T07:21:31;20.05;;;6.65;;
28988;SDS011;16089;59.952;10.818;2022-10-16T07:24:01;15.05;;;6.50;;
28988;SDS011;16089;59.952;10.818;2022-10-16T07:26:30;13.35;;;5.53;;
28988;SDS011;16089;59.952;10.818;2022-10-16T07:28:58;18.60;;;5.35;;
28988;SDS011;16089;59.952;10.818;2022-10-16T07:31:25;26.90;;;6.10;;
28988;SDS011;16089;59.952;10.818;2022-10-16T07:33:52;15.15;;;5.53;;
28988;SDS011;16089;59.952;10.818;2022-10-16T07:36:19;10.73;;;5.38;;
28988;SDS011;16089;59.952;10.818;2022-10-16T07:38:46;25.98;;;5.95;;
28988;SDS011;16089;59.952;10.818;2022-10-16T07:41:13;12.32;;;5.20;;
28988;SDS011;16089;59.952;10.818;2022-10-16T07:43:40;12.25;;;4.95;;
28988;SDS011;16089;59.952;10.818;2022-10-16T07:46:08;10.75;;;5.35;;
28988;SDS011;16089;59.952;10.818;2022-10-16T07:48:34;15.07;;;6.90;;
28988;SDS011;16089;59.952;10.818;2022-10-16T07:51:01;11.20;;;4.95;;
28988;SDS011;16089;59.952;10.818;2022-10-16T07:53:28;8.82;;;4.65;;
28988;SDS011;16089;59.952;10.818;2022-10-16T07:55:56;8.20;;;4.50;;
28988;SDS011;16089;59.952;10.818;2022-10-16T07:58:23;8.27;;;4.05;;
28988;SDS011;16089;59.952;10.818;2022-10-16T08:00:49;8.20;;;4.03;;
28988;SDS011;16089;59.952;10.818;2022-10-16T08:03:20;11.02;;;4.68;;
28988;SDS011;16089;59.952;10.818;2022-10-16T08:05:47;7.53;;;4.15;;
28988;SDS011;16089;59.952;10.818;2022-10-16T08:08:14;11.57;;;3.83;;
28988;SDS011;16089;59.952;10.818;2022-10-16T08:10:40;11.27;;;3.95;;
28988;SDS011;16089;59.952;10.818;2022-10-16T08:13:06;9.07;;;3.85;;
28988;SDS011;16089;59.952;10.818;2022-10-16T08:15:33;7.35;;;3.08;;
28988;SDS011;16089;59.952;10.818;2022-10-16T08:18:00;8.73;;;3.78;;
28988;SDS011;16089;59.952;10.818;2022-10-16T08:20:29;7.97;;;3.20;;
28988;SDS011;16089;59.952;10.818;2022-10-16T08:22:56;8.65;;;3.50;;
28988;SDS011;16089;59.952;10.818;2022-10-16T08:25:23;9.50;;;2.67;;
28988;SDS011;16089;59.952;10.818;2022-10-16T08:27:49;6.22;;;2.83;;
28988;SDS011;16089;59.952;10.818;2022-10-16T08:30:16;7.97;;;3.47;;
28988;SDS011;16089;59.952;10.818;2022-10-16T08:32:42;8.02;;;3.35;;
28988;SDS011;16089;59.952;10.818;2022-10-16T08:35:09;10.25;;;2.90;;
28988;SDS011;16089;59.952;10.818;2022-10-16T08:37:36;7.13;;;3.20;;
28988;SDS011;16089;59.952;10.818;2022-10-16T08:40:04;8.55;;;3.20;;
28988;SDS011;16089;59.952;10.818;2022-10-16T08:42:34;7.82;;;3.30;;
28988;SDS011;16089;59.952;10.818;2022-10-16T08:47:48;11.18;;;3.55;;
28988;SDS011;16089;59.952;10.818;2022-10-16T08:50:17;16.52;;;4.20;;
28988;SDS011;16089;59.952;10.818;2022-10-16T08:52:46;14.85;;;3.58;;
28988;SDS011;16089;59.952;10.818;2022-10-16T08:55:16;12.32;;;3.80;;
28988;SDS011;16089;59.952;10.818;2022-10-16T08:57:45;10.50;;;3.78;;
28988;SDS011;16089;59.952;10.818;2022-10-16T09:00:12;11.25;;;3.90;;
28988;SDS011;16089;59.952;10.818;2022-10-16T09:02:40;10.35;;;3.40;;
28988;SDS011;16089;59.952;10.818;2022-10-16T09:05:17;7.63;;;3.05;;
28988;SDS011;16089;59.952;10.818;2022-10-16T09:07:48;10.70;;;3.80;;
28988;SDS011;16089;59.952;10.818;2022-10-16T09:10:21;11.18;;;3.70;;
28988;SDS011;16089;59.952;10.818;2022-10-16T09:12:53;10.13;;;3.97;;
28988;SDS011;16089;59.952;10.818;2022-10-16T09:15:23;11.68;;;4.07;;
28988;SDS011;16089;59.952;10.818;2022-10-16T09:17:53;9.20;;;3.70;;
28988;SDS011;16089;59.952;10.818;2022-10-16T09:20:24;12.65;;;4.40;;
28988;SDS011;16089;59.952;10.818;2022-10-16T09:22:54;11.57;;;3.65;;
28988;SDS011;16089;59.952;10.818;2022-10-16T09:25:23;9.73;;;4.20;;
28988;SDS011;16089;59.952;10.818;2022-10-16T09:27:51;13.85;;;3.92;;
28988;SDS011;16089;59.952;10.818;2022-10-16T09:30:19;11.07;;;3.67;;
28988;SDS011;16089;59.952;10.818;2022-10-16T09:32:47;11.10;;;3.25;;
28988;SDS011;16089;59.952;10.818;2022-10-16T09:35:15;9.20;;;3.55;;
28988;SDS011;16089;59.952;10.818;2022-10-16T09:37:42;16.73;;;3.63;;
28988;SDS011;16089;59.952;10.818;2022-10-16T09:40:23;15.05;;;3.55;;
28988;SDS011;16089;59.952;10.818;2022-10-16T09:42:50;16.02;;;4.05;;
28988;SDS011;16089;59.952;10.818;2022-10-16T09:45:21;16.50;;;4.50;;
28988;SDS011;16089;59.952;10.818;2022-10-16T09:47:49;18.33;;;3.78;;
28988;SDS011;16089;59.952;10.818;2022-10-16T09:50:20;27.02;;;4.53;;
28988;SDS011;16089;59.952;10.818;2022-10-16T09:52:47;20.13;;;5.32;;
28988;SDS011;16089;59.952;10.818;2022-10-16T09:55:16;23.42;;;5.05;;
28988;SDS011;16089;59.952;10.818;2022-10-16T09:57:48;21.95;;;4.75;;
28988;SDS011;16089;59.952;10.818;2022-10-16T10:00:15;19.98;;;4.15;;
28988;SDS011;16089;59.952;10.818;2022-10-16T10:02:42;12.75;;;3.00;;
28988;SDS011;16089;59.952;10.818;2022-10-16T10:05:17;12.63;;;3.28;;
28988;SDS011;16089;59.952;10.818;2022-10-16T10:07:43;14.02;;;3.35;;
28988;SDS011;16089;59.952;10.818;2022-10-16T10:10:19;17.63;;;3.63;;
28988;SDS011;16089;59.952;10.818;2022-10-16T10:12:47;18.27;;;4.60;;
28988;SDS011;16089;59.952;10.818;2022-10-16T10:15:13;16.13;;;4.38;;
28988;SDS011;16089;59.952;10.818;2022-10-16T10:17:45;10.75;;;3.35;;
28988;SDS011;16089;59.952;10.818;2022-10-16T10:20:15;11.40;;;2.83;;
28988;SDS011;16089;59.952;10.818;2022-10-16T10:22:45;10.27;;;2.58;;
28988;SDS011;16089;59.952;10.818;2022-10-16T10:28:00;10.55;;;3.35;;
28988;SDS011;16089;59.952;10.818;2022-10-16T10:30:32;8.82;;;3.05;;
28988;SDS011;16089;59.952;10.818;2022-10-16T10:33:06;13.20;;;3.45;;
28988;SDS011;16089;59.952;10.818;2022-10-16T10:35:37;8.20;;;3.03;;
28988;SDS011;16089;59.952;10.818;2022-10-16T10:38:07;12.25;;;3.65;;
28988;SDS011;16089;59.952;10.818;2022-10-16T10:40:44;9.98;;;3.25;;
28988;SDS011;16089;59.952;10.818;2022-10-16T10:43:16;15.73;;;4.10;;
28988;SDS011;16089;59.952;10.818;2022-10-16T10:45:47;13.25;;;4.97;;
28988;SDS011;16089;59.952;10.818;2022-10-16T10:48:19;15.23;;;3.95;;
28988;SDS011;16089;59.952;10.818;2022-10-16T10:50:48;12.60;;;4.55;;
28988;SDS011;16089;59.952;10.818;2022-10-16T10:53:21;13.52;;;4.63;;
28988;SDS011;16089;59.952;10.818;2022-10-16T10:55:51;12.10;;;4.63;;
28988;SDS011;16089;59.952;10.818;2022-10-16T10:58:26;14.00;;;4.28;;
28988;SDS011;16089;59.952;10.818;2022-10-16T11:00:56;10.20;;;4.55;;
28988;SDS011;16089;59.952;10.818;2022-10-16T11:03:28;16.00;;;4.28;;
28988;SDS011;16089;59.952;10.818;2022-10-16T11:05:58;12.30;;;4.15;;
28988;SDS011;16089;59.952;10.818;2022-10-16T11:08:26;14.50;;;3.92;;
28988;SDS011;16089;59.952;10.818;2022-10-16T11:10:54;14.13;;;4.68;;
28988;SDS011;16089;59.952;10.818;2022-10-16T11:13:26;13.00;;;4.15;;
28988;SDS011;16089;59.952;10.818;2022-10-16T11:15:55;12.40;;;4.10;;
28988;SDS011;16089;59.952;10.818;2022-10-16T11:18:24;11.95;;;4.10;;
28988;SDS011;16089;59.952;10.818;2022-10-16T11:20:53;12.48;;;4.47;;
28988;SDS011;16089;59.952;10.818;2022-10-16T11:23:21;10.57;;;4.05;;
28988;SDS011;16089;59.952;10.818;2022-10-16T11:25:49;10.15;;;4.07;;
28988;SDS011;16089;59.952;10.818;2022-10-16T11:28:17;14.68;;;3.90;;
28988;SDS011;16089;59.952;10.818;2022-10-16T11:30:51;7.55;;;3.20;;
28988;SDS011;16089;59.952;10.818;2022-10-16T11:33:24;10.60;;;3.55;;
28988;SDS011;16089;59.952;10.818;2022-10-16T11:35:57;11.90;;;3.72;;
28988;SDS011;16089;59.952;10.818;2022-10-16T11:38:27;10.95;;;3.10;;
28988;SDS011;16089;59.952;10.818;2022-10-16T11:40:56;9.93;;;3.15;;
28988;SDS011;16089;59.952;10.818;2022-10-16T11:43:25;5.60;;;2.33;;
28988;SDS011;16089;59.952;10.818;2022-10-16T11:45:53;13.43;;;2.90;;
28988;SDS011;16089;59.952;10.818;2022-10-16T11:48:26;10.45;;;2.47;;
28988;SDS011;16089;59.952;10.818;2022-10-16T11:50:53;12.82;;;3.45;;
28988;SDS011;16089;59.952;10.818;2022-10-16T11:53:23;9.65;;;2.78;;
28988;SDS011;16089;59.952;10.818;2022-10-16T11:55:53;11.00;;;2.60;;
28988;SDS011;16089;59.952;10.818;2022-10-16T11:58:22;10.23;;;2.50;;
28988;SDS011;16089;59.952;10.818;2022-10-16T12:00:51;8.52;;;2.25;;
28988;SDS011;16089;59.952;10.818;2022-10-16T12:03:21;8.75;;;2.28;;
28988;SDS011;16089;59.952;10.818;2022-10-16T12:05:55;9.43;;;2.53;;
28988;SDS011;16089;59.952;10.818;2022-10-16T12:08:24;9.25;;;2.50;;
28988;SDS011;16089;59.952;10.818;2022-10-16T12:10:50;7.13;;;2.50;;
28988;SDS011;16089;59.952;10.818;2022-10-16T12:13:28;9.02;;;2.65;;
28988;SDS011;16089;59.952;10.818;2022-10-16T12:16:03;9.38;;;2.78;;
28988;SDS011;16089;59.952;10.818;2022-10-16T12:18:31;14.95;;;3.00;;
28988;SDS011;16089;59.952;10.818;2022-10-16T12:20:57;10.85;;;2.90;;
28988;SDS011;16089;59.952;10.818;2022-10-16T12:23:29;12.27;;;3.03;;
28988;SDS011;16089;59.952;10.818;2022-10-16T12:25:56;10.55;;;3.17;;
28988;SDS011;16089;59.952;10.818;2022-10-16T12:28:26;11.13;;;3.05;;
28988;SDS011;16089;59.952;10.818;2022-10-16T12:30:53;9.63;;;2.90;;
28988;SDS011;16089;59.952;10.818;2022-10-16T12:33:21;10.15;;;2.72;;
28988;SDS011;16089;59.952;10.818;2022-10-16T12:35:49;10.55;;;2.67;;
28988;SDS011;16089;59.952;10.818;2022-10-16T12:38:16;8.65;;;3.22;;
28988;SDS011;16089;59.952;10.818;2022-10-16T12:40:44;11.75;;;3.55;;
28988;SDS011;16089;59.952;10.818;2022-10-16T12:43:11;9.48;;;3.03;;
28988;SDS011;16089;59.952;10.818;2022-10-16T12:45:38;11.15;;;3.55;;
28988;SDS011;16089;59.952;10.818;2022-10-16T12:48:04;9.50;;;3.20;;
28988;SDS011;16089;59.952;10.818;2022-10-16T12:50:44;9.18;;;2.30;;
28988;SDS011;16089;59.952;10.818;2022-10-16T12:53:19;9.75;;;2.22;;
28988;SDS011;16089;59.952;10.818;2022-10-16T12:55:49;8.82;;;2.10;;
28988;SDS011;16089;59.952;10.818;2022-10-16T12:58:25;9.45;;;2.28;;
28988;SDS011;16089;59.952;10.818;2022-10-16T13:00:55;7.97;;;2.28;;
28988;SDS011;16089;59.952;10.818;2022-10-16T13:03:33;8.02;;;2.20;;
28988;SDS011;16089;59.952;10.818;2022-10-16T13:06:06;8.73;;;2.45;;
28988;SDS011;16089;59.952;10.818;2022-10-16T13:08:42;7.43;;;2.45;;
28988;SDS011;16089;59.952;10.818;2022-10-16T13:11:14;10.10;;;2.50;;
28988;SDS011;16089;59.952;10.818;2022-10-16T13:13:48;8.68;;;2.42;;
28988;SDS011;16089;59.952;10.818;2022-10-16T13:16:19;8.52;;;2.50;;
28988;SDS011;16089;59.952;10.818;2022-10-16T13:18:52;8.70;;;3.10;;
28988;SDS011;16089;59.952;10.818;2022-10-16T13:21:24;9.02;;;3.20;;
28988;SDS011;16089;59.952;10.818;2022-10-16T13:23:55;11.35;;;3.53;;
28988;SDS011;16089;59.952;10.818;2022-10-16T13:26:29;10.48;;;4.03;;
28988;SDS011;16089;59.952;10.818;2022-10-16T13:28:58;6.15;;;2.85;;
28988;SDS011;16089;59.952;10.818;2022-10-16T13:31:24;6.50;;;2.40;;
28988;SDS011;16089;59.952;10.818;2022-10-16T13:33:51;11.63;;;3.35;;
28988;SDS011;16089;59.952;10.818;2022-10-16T13:36:20;7.43;;;3.00;;
28988;SDS011;16089;59.952;10.818;2022-10-16T13:38:47;5.32;;;2.30;;
28988;SDS011;16089;59.952;10.818;2022-10-16T13:41:15;8.95;;;2.90;;
28988;SDS011;16089;59.952;10.818;2022-10-16T13:43:43;8.90;;;2.20;;
28988;SDS011;16089;59.952;10.818;2022-10-16T13:46:11;11.00;;;2.20;;
28988;SDS011;16089;59.952;10.818;2022-10-16T13:48:38;6.60;;;1.85;;
28988;SDS011;16089;59.952;10.818;2022-10-16T13:51:06;7.03;;;1.83;;
28988;SDS011;16089;59.952;10.818;2022-10-16T13:53:33;7.43;;;1.80;;
28988;SDS011;16089;59.952;10.818;2022-10-16T13:56:01;6.25;;;1.85;;
28988;SDS011;16089;59.952;10.818;2022-10-16T13:58:29;7.00;;;1.95;;
28988;SDS011;16089;59.952;10.818;2022-10-16T14:00:56;5.95;;;1.70;;
28988;SDS011;16089;59.952;10.818;2022-10-16T14:03:23;5.70;;;1.42;;
28988;SDS011;16089;59.952;10.818;2022-10-16T14:05:51;6.70;;;1.60;;
28988;SDS011;16089;59.952;10.818;2022-10-16T14:08:18;6.32;;;2.15;;
28988;SDS011;16089;59.952;10.818;2022-10-16T14:10:47;7.07;;;1.80;;
28988;SDS011;16089;59.952;10.818;2022-10-16T14:13:15;6.72;;;2.28;;
28988;SDS011;16089;59.952;10.818;2022-10-16T14:15:45;7.95;;;2.63;;
28988;SDS011;16089;59.952;10.818;2022-10-16T14:18:14;7.70;;;2.42;;
28988;SDS011;16089;59.952;10.818;2022-10-16T14:20:41;5.47;;;2.60;;
28988;SDS011;16089;59.952;10.818;2022-10-16T14:23:18;6.18;;;2.25;;
28988;SDS011;16089;59.952;10.818;2022-10-16T14:25:45;7.72;;;2.55;;
28988;SDS011;16089;59.952;10.818;2022-10-16T14:28:14;6.30;;;2.33;;
28988;SDS011;16089;59.952;10.818;2022-10-16T14:30:49;5.95;;;2.13;;
28988;SDS011;16089;59.952;10.818;2022-10-16T14:33:20;8.25;;;2.83;;
28988;SDS011;16089;59.952;10.818;2022-10-16T14:35:56;8.30;;;2.30;;
28988;SDS011;16089;59.952;10.818;2022-10-16T14:38:24;6.90;;;2.47;;
28988;SDS011;16089;59.952;10.818;2022-10-16T14:40:51;6.95;;;2.55;;
28988;SDS011;16089;59.952;10.818;2022-10-16T14:43:20;7.03;;;2.60;;
28988;SDS011;16089;59.952;10.818;2022-10-16T14:45:50;8.07;;;3.17;;
28988;SDS011;16089;59.952;10.818;2022-10-16T14:48:17;6.13;;;2.60;;